createdAt,value
2022-10-13T00:00:38.318Z,14.92
2022-10-13T00:03:05.050Z,14.98
2022-10-13T00:05:32.196Z,15.01
2022-10-13T00:07:59.323Z,15.01
2022-10-13T00:10:26.773Z,15.00
2022-10-13T00:12:53.712Z,14.99
2022-10-13T00:15:20.471Z,14.98
2022-10-13T00:17:47.174Z,14.96
2022-10-13T00:20:13.898Z,14.94
2022-10-13T00:22:40.567Z,14.92
2022-10-13T00:25:07.654Z,14.89
2022-10-13T00:27:34.367Z,14.87
2022-10-13T00:30:01.101Z,14.85
2022-10-13T00:32:27.851Z,14.89
2022-10-13T00:34:54.530Z,14.90
2022-10-13T00:37:21.152Z,14.90
2022-10-13T00:39:47.832Z,14.88
2022-10-13T00:42:14.592Z,14.86
2022-10-13T00:45:18.120Z,14.84
2022-10-13T00:47:47.531Z,14.82
2022-10-13T00:50:25.903Z,14.80
2022-10-13T00:52:54.803Z,14.78
2022-10-13T00:55:25.004Z,14.76
2022-10-13T00:57:55.273Z,14.73
2022-10-13T01:00:23.329Z,14.71
2022-10-13T01:02:50.574Z,14.76
2022-10-13T01:05:19.757Z,14.78
2022-10-13T01:07:49.349Z,14.78
2022-10-13T01:10:26.523Z,14.76
2022-10-13T01:13:01.828Z,14.74
2022-10-13T01:15:38.169Z,14.73
2022-10-13T01:18:31.047Z,14.72
2022-10-13T01:21:06.013Z,14.71
2022-10-13T01:24:03.215Z,14.70
2022-10-13T01:26:39.193Z,14.68
2022-10-13T01:29:31.943Z,14.68
2022-10-13T01:32:20.134Z,14.74
2022-10-13T01:35:10.945Z,14.76
2022-10-13T01:37:49.903Z,14.76
2022-10-13T01:40:41.550Z,14.75
2022-10-13T01:43:21.946Z,14.74
2022-10-13T01:45:58.831Z,14.73
2022-10-13T01:48:28.615Z,14.72
2022-10-13T01:50:58.749Z,14.71
2022-10-13T01:53:26.794Z,14.70
2022-10-13T01:55:56.803Z,14.68
2022-10-13T01:58:27.404Z,14.66
2022-10-13T02:01:00.294Z,14.71
2022-10-13T02:03:38.785Z,14.72
2022-10-13T02:06:39.396Z,14.73
2022-10-13T02:09:13.024Z,14.69
2022-10-13T02:11:47.995Z,14.68
2022-10-13T02:14:21.513Z,14.68
2022-10-13T02:16:51.244Z,14.66
2022-10-13T02:19:19.140Z,14.65
2022-10-13T02:21:47.122Z,14.63
2022-10-13T02:24:14.213Z,14.60
2022-10-13T02:26:42.681Z,14.57
2022-10-13T02:29:12.094Z,14.56
2022-10-13T02:31:40.475Z,14.61
2022-10-13T02:34:07.923Z,14.63
2022-10-13T02:36:34.946Z,14.63
2022-10-13T02:39:01.785Z,14.60
2022-10-13T02:41:28.421Z,14.60
2022-10-13T02:43:55.126Z,14.58
2022-10-13T02:46:22.236Z,14.56
2022-10-13T02:48:49.006Z,14.54
2022-10-13T02:51:15.861Z,14.52
2022-10-13T02:53:42.599Z,14.51
2022-10-13T02:56:09.260Z,14.49
2022-10-13T02:58:36.300Z,14.55
2022-10-13T03:01:12.611Z,14.56
2022-10-13T03:03:40.235Z,14.54
2022-10-13T03:06:07.531Z,14.52
2022-10-13T03:08:35.721Z,14.50
2022-10-13T03:11:02.967Z,14.49
2022-10-13T03:13:29.743Z,14.47
2022-10-13T03:15:56.453Z,14.45
2022-10-13T03:18:23.183Z,14.43
2022-10-13T03:20:58.245Z,14.41
2022-10-13T03:23:25.561Z,14.40
2022-10-13T03:25:52.431Z,14.45
2022-10-13T03:28:19.320Z,14.46
2022-10-13T03:30:46.203Z,14.45
2022-10-13T03:33:13.162Z,14.43
2022-10-13T03:35:39.821Z,14.41
2022-10-13T03:38:06.650Z,14.40
2022-10-13T03:40:35.539Z,14.37
2022-10-13T03:43:02.412Z,14.35
2022-10-13T03:45:31.552Z,14.32
2022-10-13T03:47:58.939Z,14.29
2022-10-13T03:50:25.812Z,14.27
2022-10-13T03:52:52.539Z,14.26
2022-10-13T03:55:19.214Z,14.30
2022-10-13T03:57:45.950Z,14.32
2022-10-13T04:00:13.314Z,14.34
2022-10-13T04:02:40.047Z,14.31
2022-10-13T04:05:06.864Z,14.28
2022-10-13T04:07:33.515Z,14.27
2022-10-13T04:10:00.148Z,14.25
2022-10-13T04:12:27.333Z,14.23
2022-10-13T04:14:54.225Z,14.22
2022-10-13T04:17:20.907Z,14.20
2022-10-13T04:19:47.613Z,14.19
2022-10-13T04:22:14.335Z,14.24
2022-10-13T04:24:41.153Z,14.27
2022-10-13T04:27:08.031Z,14.28
2022-10-13T04:29:34.691Z,14.26
2022-10-13T04:32:01.409Z,14.24
2022-10-13T04:34:28.151Z,14.24
2022-10-13T04:36:54.799Z,14.22
2022-10-13T04:39:21.474Z,14.20
2022-10-13T04:41:48.149Z,14.18
2022-10-13T04:44:14.888Z,14.16
2022-10-13T04:46:41.586Z,14.12
2022-10-13T04:49:08.384Z,14.11
2022-10-13T04:51:35.197Z,14.17
2022-10-13T04:54:02.878Z,14.20
2022-10-13T04:56:30.115Z,14.21
2022-10-13T04:58:56.925Z,14.20
2022-10-13T05:01:25.371Z,14.19
2022-10-13T05:03:57.780Z,14.19
2022-10-13T05:06:27.247Z,14.18
2022-10-13T05:08:53.971Z,14.16
2022-10-13T05:11:20.922Z,14.16
2022-10-13T05:13:49.069Z,14.14
2022-10-13T05:16:18.258Z,14.14
2022-10-13T05:18:45.553Z,14.20
2022-10-13T05:21:14.991Z,14.23
2022-10-13T05:23:42.612Z,14.24
2022-10-13T05:26:12.853Z,14.23
2022-10-13T05:28:40.095Z,14.23
2022-10-13T05:31:12.894Z,14.24
2022-10-13T05:33:40.352Z,14.23
2022-10-13T05:36:12.446Z,14.22
2022-10-13T05:38:39.365Z,14.21
2022-10-13T05:41:08.324Z,14.19
2022-10-13T05:43:35.340Z,14.19
2022-10-13T05:46:02.453Z,14.24
2022-10-13T05:48:30.295Z,14.26
2022-10-13T05:50:59.584Z,14.27
2022-10-13T05:53:30.251Z,14.26
2022-10-13T05:56:06.226Z,14.24
2022-10-13T05:58:43.840Z,14.23
2022-10-13T06:01:14.925Z,14.23
2022-10-13T06:03:42.930Z,14.22
2022-10-13T06:06:10.079Z,14.22
2022-10-13T06:08:38.367Z,14.22
2022-10-13T06:11:06.107Z,14.29
2022-10-13T06:13:34.054Z,14.32
2022-10-13T06:16:01.252Z,14.34
2022-10-13T06:18:28.051Z,14.34
2022-10-13T06:20:54.774Z,14.33
2022-10-13T06:23:21.494Z,14.32
2022-10-13T06:25:53.107Z,14.32
2022-10-13T06:28:21.259Z,14.31
2022-10-13T06:30:54.015Z,14.31
2022-10-13T06:33:21.511Z,14.29
2022-10-13T06:35:48.363Z,14.29
2022-10-13T06:38:15.156Z,14.35
2022-10-13T06:40:42.514Z,14.39
2022-10-13T06:43:10.191Z,14.40
2022-10-13T06:45:36.858Z,14.41
2022-10-13T06:48:04.013Z,14.41
2022-10-13T06:50:32.481Z,14.41
2022-10-13T06:52:59.428Z,14.42
2022-10-13T06:55:26.213Z,14.42
2022-10-13T06:57:52.946Z,14.41
2022-10-13T07:00:20.632Z,14.41
2022-10-13T07:02:50.767Z,14.41
2022-10-13T07:05:17.495Z,14.47
2022-10-13T07:07:44.602Z,14.50
2022-10-13T07:10:11.354Z,14.52
2022-10-13T07:12:38.006Z,14.52
2022-10-13T07:15:04.983Z,14.53
2022-10-13T07:17:31.781Z,14.55
2022-10-13T07:19:59.697Z,14.56
2022-10-13T07:22:29.096Z,14.57
2022-10-13T07:24:55.958Z,14.57
2022-10-13T07:27:23.958Z,14.59
2022-10-13T07:29:50.759Z,14.65
2022-10-13T07:32:17.661Z,14.69
2022-10-13T07:34:44.340Z,14.72
2022-10-13T07:37:11.099Z,14.72
2022-10-13T07:39:37.773Z,14.73
2022-10-13T07:42:04.479Z,14.76
2022-10-13T07:44:31.235Z,14.77
2022-10-13T07:46:57.950Z,14.77
2022-10-13T07:49:24.654Z,14.78
2022-10-13T07:51:51.310Z,14.78
2022-10-13T07:54:22.537Z,14.79
2022-10-13T07:56:52.806Z,14.87
2022-10-13T07:59:19.944Z,14.92
2022-10-13T08:01:46.821Z,14.96
2022-10-13T08:04:13.717Z,14.98
2022-10-13T08:09:12.578Z,15.02
2022-10-13T08:11:39.443Z,15.04
2022-10-13T08:14:06.193Z,15.04
2022-10-13T08:16:33.084Z,15.05
2022-10-13T08:19:00.429Z,15.04
2022-10-13T08:21:53.339Z,15.04
2022-10-13T08:24:17.558Z,15.06
2022-10-13T08:26:46.545Z,15.12
2022-10-13T08:29:21.942Z,15.17
2022-10-13T08:34:26.064Z,15.16
2022-10-13T08:36:56.671Z,15.17
2022-10-13T08:39:24.554Z,15.18
2022-10-13T08:41:51.359Z,15.18
2022-10-13T08:44:59.535Z,15.19
2022-10-13T08:47:15.686Z,15.19
2022-10-13T08:49:43.396Z,15.18
2022-10-13T08:52:18.742Z,15.17
2022-10-13T08:54:45.750Z,15.25
2022-10-13T08:57:12.429Z,15.29
2022-10-13T08:59:39.639Z,15.32
2022-10-13T09:02:14.947Z,15.34
2022-10-13T09:04:48.873Z,15.36
2022-10-13T09:07:21.838Z,15.38
2022-10-13T09:09:54.254Z,15.41
2022-10-13T09:12:25.236Z,15.42
2022-10-13T09:15:05.873Z,15.43
2022-10-13T09:17:34.811Z,15.44
2022-10-13T09:20:18.199Z,15.45
2022-10-13T09:22:46.014Z,15.48
2022-10-13T09:25:15.696Z,15.55
2022-10-13T09:27:50.310Z,15.58
2022-10-13T09:30:26.706Z,15.59
2022-10-13T09:33:09.266Z,15.59
2022-10-13T09:35:48.058Z,15.60
2022-10-13T09:38:20.175Z,15.60
2022-10-13T09:41:06.412Z,15.62
2022-10-13T09:43:38.603Z,15.62
2022-10-13T09:46:30.886Z,15.62
2022-10-13T09:49:07.214Z,15.62
2022-10-13T09:51:42.982Z,15.62
2022-10-13T09:54:33.794Z,15.70
2022-10-13T09:57:07.432Z,15.71
2022-10-13T09:59:39.782Z,15.71
2022-10-13T10:02:45.423Z,15.69
2022-10-13T10:05:42.222Z,15.67
2022-10-13T10:08:58.064Z,15.64
2022-10-13T10:11:45.844Z,15.62
2022-10-13T10:14:18.570Z,15.62
2022-10-13T10:16:53.607Z,15.62
2022-10-13T10:19:26.852Z,15.61
2022-10-13T10:22:10.262Z,15.68
2022-10-13T10:24:58.697Z,15.72
2022-10-13T10:27:31.601Z,15.73
2022-10-13T10:30:16.976Z,15.74
2022-10-13T10:32:46.709Z,15.74
2022-10-13T10:35:21.209Z,15.76
2022-10-13T10:38:16.329Z,15.76
2022-10-13T10:40:50.161Z,15.76
2022-10-13T10:43:31.120Z,15.76
2022-10-13T10:45:59.686Z,15.77
2022-10-13T10:48:39.786Z,15.76
2022-10-13T10:51:08.836Z,15.78
2022-10-13T10:53:53.966Z,15.86
2022-10-13T10:56:32.644Z,15.90
2022-10-13T10:59:09.940Z,15.93
2022-10-13T11:01:47.061Z,15.94
2022-10-13T11:04:30.847Z,15.94
2022-10-13T11:06:57.577Z,15.95
2022-10-13T11:09:42.808Z,15.96
2022-10-13T11:12:22.206Z,15.96
2022-10-13T11:14:55.200Z,15.96
2022-10-13T11:17:25.042Z,15.95
2022-10-13T11:19:53.465Z,15.94
2022-10-13T11:22:25.007Z,15.92
2022-10-13T11:25:03.983Z,15.93
2022-10-13T11:27:36.869Z,16.02
2022-10-13T11:30:04.671Z,16.05
2022-10-13T11:32:41.567Z,16.05
2022-10-13T11:35:08.178Z,16.04
2022-10-13T11:38:06.815Z,16.04
2022-10-13T11:41:05.390Z,16.03
2022-10-13T11:48:17.470Z,16.01
2022-10-13T11:58:19.786Z,15.95
2022-10-13T12:01:00.082Z,15.96
2022-10-13T12:03:50.684Z,16.04
2022-10-13T12:06:34.173Z,16.07
2022-10-13T12:09:03.634Z,16.10
2022-10-13T12:11:37.777Z,16.10
2022-10-13T12:14:19.609Z,16.12
2022-10-13T12:19:31.882Z,16.17
2022-10-13T12:22:01.214Z,16.19
2022-10-13T12:24:30.483Z,16.21
2022-10-13T12:26:58.634Z,16.23
2022-10-13T12:29:29.444Z,16.24
2022-10-13T12:31:58.711Z,16.25
2022-10-13T12:34:35.298Z,16.25
2022-10-13T12:37:27.332Z,16.26
2022-10-13T12:39:56.826Z,16.33
2022-10-13T12:42:36.481Z,16.35
2022-10-13T12:45:04.746Z,16.34
2022-10-13T12:47:39.595Z,16.33
2022-10-13T12:53:57.899Z,16.31
2022-10-13T12:56:31.557Z,16.29
2022-10-13T12:58:58.538Z,16.28
2022-10-13T13:01:35.953Z,16.26
2022-10-13T13:04:21.713Z,16.25
2022-10-13T13:07:00.867Z,16.31
2022-10-13T13:09:28.443Z,16.34
2022-10-13T13:12:10.407Z,16.36
2022-10-13T13:14:37.144Z,16.36
2022-10-13T13:17:13.103Z,16.36
2022-10-13T13:19:42.711Z,16.37
2022-10-13T13:22:09.716Z,16.38
2022-10-13T13:24:40.114Z,16.36
2022-10-13T13:27:20.278Z,16.36
2022-10-13T13:29:47.915Z,16.35
2022-10-13T13:32:20.086Z,16.33
2022-10-13T13:34:49.783Z,16.31
2022-10-13T13:37:25.247Z,16.31
2022-10-13T13:39:52.626Z,16.38
2022-10-13T13:43:04.190Z,16.40
2022-10-13T13:49:22.039Z,16.39
2022-10-13T13:51:49.110Z,16.40
2022-10-13T14:01:59.191Z,16.36
2022-10-13T14:04:54.078Z,16.36
2022-10-13T14:07:21.244Z,16.34
2022-10-13T14:09:48.342Z,16.32
2022-10-13T14:12:15.036Z,16.31
2022-10-13T14:14:41.717Z,16.30
2022-10-13T14:17:08.323Z,16.35
2022-10-13T14:19:35.053Z,16.38
2022-10-13T14:22:05.789Z,16.39
2022-10-13T14:24:35.276Z,16.38
2022-10-13T14:27:02.038Z,16.38
2022-10-13T14:29:28.796Z,16.38
2022-10-13T14:31:55.433Z,16.39
2022-10-13T14:34:22.180Z,16.39
2022-10-13T14:36:49.139Z,16.39
2022-10-13T14:39:15.858Z,16.37
2022-10-13T14:41:42.513Z,16.36
2022-10-13T14:44:14.153Z,16.35
2022-10-13T14:46:41.596Z,16.35
2022-10-13T14:49:10.758Z,16.39
2022-10-13T14:51:37.485Z,16.41
2022-10-13T14:54:05.143Z,16.42
2022-10-13T14:56:31.851Z,16.41
2022-10-13T14:59:00.859Z,16.40
2022-10-13T15:01:28.316Z,16.39
2022-10-13T15:03:55.136Z,16.39
2022-10-13T15:06:24.943Z,16.38
2022-10-13T15:08:52.206Z,16.37
2022-10-13T15:11:31.596Z,16.35
2022-10-13T15:14:11.690Z,16.34
2022-10-13T15:16:54.953Z,16.33
2022-10-13T15:19:30.833Z,16.37
2022-10-13T15:22:00.659Z,16.38
2022-10-13T15:25:17.795Z,16.34
2022-10-13T15:36:26.332Z,16.25
2022-10-13T15:56:42.440Z,16.19
2022-10-13T15:59:12.298Z,16.19
2022-10-13T16:01:39.025Z,16.19
2022-10-13T16:04:05.772Z,16.18
2022-10-13T16:06:33.803Z,16.18
2022-10-13T16:09:01.065Z,16.17
2022-10-13T16:11:27.889Z,16.16
2022-10-13T16:13:54.718Z,16.15
2022-10-13T16:16:22.547Z,16.12
2022-10-13T16:18:51.135Z,16.10
2022-10-13T16:21:20.929Z,16.09
2022-10-13T16:23:48.327Z,16.15
2022-10-13T16:26:17.695Z,16.16
2022-10-13T16:28:46.032Z,16.17
2022-10-13T16:31:15.928Z,16.15
2022-10-13T16:33:44.461Z,16.15
2022-10-13T16:36:17.269Z,16.14
2022-10-13T16:38:45.900Z,16.13
2022-10-13T16:41:15.794Z,16.12
2022-10-13T16:43:44.012Z,16.10
2022-10-13T16:46:13.667Z,16.08
2022-10-13T16:48:41.373Z,16.06
2022-10-13T16:51:10.409Z,16.05
2022-10-13T16:53:38.772Z,16.04
2022-10-13T16:56:07.083Z,16.10
2022-10-13T16:58:34.315Z,16.13
2022-10-13T17:01:08.945Z,16.13
2022-10-13T17:03:36.912Z,16.13
2022-10-13T17:06:04.643Z,16.12
2022-10-13T17:08:32.005Z,16.12
2022-10-13T17:11:05.221Z,16.11
2022-10-13T17:13:32.727Z,16.10
2022-10-13T17:15:59.872Z,16.08
2022-10-13T17:18:28.474Z,16.06
2022-10-13T17:21:05.283Z,16.03
2022-10-13T17:23:32.554Z,16.02
2022-10-13T17:26:05.705Z,16.07
2022-10-13T17:28:34.006Z,16.08
2022-10-13T17:38:45.027Z,16.01
2022-10-13T17:44:53.145Z,15.95
2022-10-13T17:47:20.445Z,15.95
2022-10-13T17:49:47.286Z,15.94
2022-10-13T17:52:13.983Z,15.93
2022-10-13T17:54:41.527Z,15.91
2022-10-13T17:57:09.234Z,15.96
2022-10-13T18:00:24.888Z,15.97
2022-10-13T18:02:51.696Z,15.97
2022-10-13T18:05:19.314Z,15.95
2022-10-13T18:07:46.742Z,15.94
2022-10-13T18:10:15.336Z,15.93
2022-10-13T18:12:42.303Z,15.91
2022-10-13T18:15:10.423Z,15.88
2022-10-13T18:17:37.913Z,15.86
2022-10-13T18:20:05.255Z,15.83
2022-10-13T18:22:33.500Z,15.81
2022-10-13T18:25:00.758Z,15.85
2022-10-13T18:27:27.904Z,15.87
2022-10-13T18:29:55.088Z,15.87
2022-10-13T18:32:22.738Z,15.83
2022-10-13T18:34:49.973Z,15.81
2022-10-13T18:37:17.565Z,15.80
2022-10-13T18:39:45.311Z,15.78
2022-10-13T18:42:12.478Z,15.76
2022-10-13T18:44:39.791Z,15.74
2022-10-13T18:47:07.390Z,15.73
2022-10-13T18:49:34.507Z,15.78
2022-10-13T18:52:01.771Z,15.80
2022-10-13T18:54:29.775Z,15.80
2022-10-13T18:56:59.976Z,15.77
2022-10-13T18:59:27.743Z,15.75
2022-10-13T19:01:55.030Z,15.73
2022-10-13T19:04:22.915Z,15.71
2022-10-13T19:06:50.596Z,15.69
2022-10-13T19:09:18.149Z,15.67
2022-10-13T19:11:45.941Z,15.66
2022-10-13T19:14:14.020Z,15.70
2022-10-13T19:16:43.525Z,15.71
2022-10-13T19:19:10.929Z,15.72
2022-10-13T19:21:39.871Z,15.70
2022-10-13T19:24:08.732Z,15.68
2022-10-13T19:26:37.383Z,15.66
2022-10-13T19:29:11.279Z,15.64
2022-10-13T19:31:39.894Z,15.62
2022-10-13T19:34:06.850Z,15.61
2022-10-13T19:36:40.531Z,15.60
2022-10-13T19:39:12.041Z,15.64
2022-10-13T19:41:39.780Z,15.66
2022-10-13T19:44:07.729Z,15.65
2022-10-13T19:46:36.535Z,15.62
2022-10-13T19:49:05.155Z,15.59
2022-10-13T19:51:33.673Z,15.57
2022-10-13T19:54:02.057Z,15.56
2022-10-13T19:56:34.757Z,15.55
2022-10-13T19:59:04.474Z,15.54
2022-10-13T20:01:32.259Z,15.58
2022-10-13T20:04:08.339Z,15.60
2022-10-13T20:06:36.887Z,15.60
2022-10-13T20:09:05.109Z,15.58
2022-10-13T20:11:32.257Z,15.56
2022-10-13T20:13:59.483Z,15.53
2022-10-13T20:16:26.305Z,15.50
2022-10-13T20:18:54.855Z,15.48
2022-10-13T20:21:21.973Z,15.46
2022-10-13T20:23:50.176Z,15.45
2022-10-13T20:26:18.660Z,15.50
2022-10-13T20:28:48.216Z,15.52
2022-10-13T20:31:16.746Z,15.53
2022-10-13T20:33:43.883Z,15.50
2022-10-13T20:36:16.654Z,15.49
2022-10-13T20:38:43.476Z,15.48
2022-10-13T20:41:18.037Z,15.46
2022-10-13T20:43:49.245Z,15.44
2022-10-13T20:46:17.509Z,15.41
2022-10-13T20:49:09.859Z,15.40
2022-10-13T20:51:31.242Z,15.46
2022-10-13T20:53:58.039Z,15.47
2022-10-13T20:56:26.095Z,15.48
2022-10-13T20:58:54.239Z,15.45
2022-10-13T21:01:23.267Z,15.43
2022-10-13T21:03:54.529Z,15.42
2022-10-13T21:06:22.897Z,15.41
2022-10-13T21:08:49.702Z,15.39
2022-10-13T21:11:18.521Z,15.36
2022-10-13T21:13:45.408Z,15.35
2022-10-13T21:16:20.712Z,15.38
2022-10-13T21:18:49.183Z,15.40
2022-10-13T21:21:21.701Z,15.39
2022-10-13T21:23:57.362Z,15.37
2022-10-13T21:26:25.315Z,15.36
2022-10-13T21:28:52.448Z,15.33
2022-10-13T21:31:21.807Z,15.31
2022-10-13T22:27:47.688Z,15.05
2022-10-13T22:30:14.399Z,15.09
2022-10-13T22:32:41.092Z,15.10
2022-10-13T22:35:08.286Z,15.07
2022-10-13T22:37:34.906Z,15.05
2022-10-13T22:40:01.785Z,15.05
2022-10-13T22:42:28.479Z,15.03
2022-10-13T22:44:55.168Z,15.03
2022-10-13T22:47:22.225Z,15.02
2022-10-13T22:49:49.386Z,15.08
2022-10-13T22:52:16.052Z,15.10
2022-10-13T22:54:42.706Z,15.11
2022-10-13T22:57:09.436Z,15.10
2022-10-13T22:59:36.189Z,15.08
2022-10-13T23:02:02.900Z,15.08
2022-10-13T23:04:29.606Z,15.07
2022-10-13T23:06:56.311Z,15.06
2022-10-13T23:09:23.003Z,15.05
2022-10-13T23:11:49.752Z,15.09
2022-10-13T23:14:16.437Z,15.11
2022-10-13T23:16:43.141Z,15.11
2022-10-13T23:31:00.646Z,14.92
2022-10-13T23:37:08.907Z,14.95
2022-10-13T23:39:47.596Z,14.96
2022-10-13T23:42:14.309Z,14.94
2022-10-13T23:44:40.979Z,14.92
2022-10-13T23:47:07.712Z,14.90
2022-10-13T23:49:34.450Z,14.88
2022-10-13T23:52:01.152Z,14.87
2022-10-13T23:54:31.180Z,14.86
2022-10-13T23:56:58.148Z,14.90
2022-10-13T23:59:24.918Z,14.91
